createdAt,value
2023-08-08T00:01:46.929Z,13.31
2023-08-08T00:04:14.277Z,13.18
2023-08-08T00:06:41.837Z,13.22
2023-08-08T00:09:09.183Z,13.25
2023-08-08T00:11:36.800Z,13.34
2023-08-08T00:14:04.349Z,13.25
2023-08-08T00:16:31.668Z,13.24
2023-08-08T00:18:59.094Z,13.18
2023-08-08T00:21:26.504Z,13.13
2023-08-08T00:23:53.825Z,13.20
2023-08-08T00:26:21.235Z,13.09
2023-08-08T00:28:48.603Z,13.08
2023-08-08T00:31:18.907Z,13.02
2023-08-08T00:33:46.524Z,13.04
2023-08-08T00:36:13.913Z,13.09
2023-08-08T00:38:41.323Z,13.17
2023-08-08T00:41:08.743Z,13.19
2023-08-08T00:43:36.184Z,13.13
2023-08-08T00:46:03.841Z,13.13
2023-08-08T00:48:32.825Z,13.20
2023-08-08T00:51:00.767Z,13.26
2023-08-08T00:53:32.324Z,13.17
2023-08-08T00:56:01.639Z,13.16
2023-08-08T00:58:29.397Z,13.20
2023-08-08T01:01:01.027Z,13.10
2023-08-08T01:03:28.569Z,13.14
2023-08-08T01:06:07.059Z,13.16
2023-08-08T01:08:48.241Z,13.20
2023-08-08T01:11:18.029Z,13.26
2023-08-08T01:13:48.030Z,13.23
2023-08-08T01:16:18.713Z,13.23
2023-08-08T01:18:49.546Z,13.09
2023-08-08T01:21:17.917Z,13.15
2023-08-08T01:23:57.961Z,13.01
2023-08-08T01:26:25.832Z,12.96
2023-08-08T01:28:56.154Z,13.01
2023-08-08T01:31:24.433Z,12.96
2023-08-08T01:33:51.678Z,12.97
2023-08-08T01:36:30.127Z,13.13
2023-08-08T01:39:05.583Z,13.11
2023-08-08T01:41:40.804Z,13.00
2023-08-08T01:44:08.910Z,13.00
2023-08-08T01:46:37.729Z,13.12
2023-08-08T01:49:05.150Z,13.00
2023-08-08T01:51:32.511Z,13.06
2023-08-08T01:53:59.834Z,13.02
2023-08-08T01:56:27.127Z,12.99
2023-08-08T01:58:54.439Z,13.07
2023-08-08T02:01:22.645Z,12.99
2023-08-08T02:03:50.029Z,12.90
2023-08-08T02:06:17.403Z,12.99
2023-08-08T02:08:44.832Z,12.91
2023-08-08T02:11:12.698Z,12.98
2023-08-08T02:13:39.958Z,12.99
2023-08-08T02:16:07.473Z,12.94
2023-08-08T02:18:34.820Z,12.93
2023-08-08T02:21:02.782Z,12.83
2023-08-08T02:23:30.212Z,12.80
2023-08-08T02:25:57.492Z,12.82
2023-08-08T02:28:24.839Z,12.77
2023-08-08T02:30:52.503Z,12.74
2023-08-08T02:33:20.434Z,12.80
2023-08-08T02:35:47.828Z,12.73
2023-08-08T02:38:15.127Z,12.73
2023-08-08T02:40:42.763Z,12.79
2023-08-08T02:43:12.034Z,12.71
2023-08-08T02:45:39.916Z,12.81
2023-08-08T02:48:07.761Z,12.81
2023-08-08T02:50:35.268Z,12.75
2023-08-08T02:53:03.163Z,12.77
2023-08-08T02:55:38.312Z,12.60
2023-08-08T02:58:06.002Z,12.66
2023-08-08T03:00:33.946Z,12.60
2023-08-08T03:03:02.431Z,12.55
2023-08-08T03:05:29.990Z,12.51
2023-08-08T03:07:57.929Z,12.51
2023-08-08T03:10:27.007Z,12.45
2023-08-08T03:12:54.331Z,12.42
2023-08-08T03:15:22.757Z,12.47
2023-08-08T03:17:50.964Z,12.45
2023-08-08T03:20:19.028Z,12.46
2023-08-08T03:22:46.512Z,12.54
2023-08-08T03:25:13.935Z,12.64
2023-08-08T03:27:43.013Z,12.66
2023-08-08T03:30:12.856Z,12.74
2023-08-08T03:32:43.048Z,12.68
2023-08-08T03:35:10.821Z,12.76
2023-08-08T03:37:40.507Z,12.81
2023-08-08T03:40:11.859Z,12.84
2023-08-08T03:42:39.278Z,12.84
2023-08-08T03:45:07.336Z,12.92
2023-08-08T03:47:34.836Z,12.94
2023-08-08T03:50:02.310Z,12.97
2023-08-08T03:52:30.189Z,12.92
2023-08-08T03:54:58.685Z,12.98
2023-08-08T03:57:26.632Z,13.05
2023-08-08T03:59:54.045Z,13.17
2023-08-08T04:02:21.485Z,13.10
2023-08-08T04:04:48.855Z,12.96
2023-08-08T04:07:16.169Z,12.99
2023-08-08T04:09:43.442Z,13.02
2023-08-08T04:12:10.819Z,13.08
2023-08-08T04:14:38.248Z,12.99
2023-08-08T04:17:06.187Z,12.95
2023-08-08T04:19:33.618Z,12.93
2023-08-08T04:22:01.138Z,12.87
2023-08-08T04:24:29.105Z,12.85
2023-08-08T04:26:56.373Z,12.83
2023-08-08T04:29:23.953Z,12.90
2023-08-08T04:31:51.264Z,12.73
2023-08-08T04:34:18.724Z,12.82
2023-08-08T04:36:46.185Z,12.75
2023-08-08T04:39:13.389Z,12.93
2023-08-08T04:41:40.763Z,13.02
2023-08-08T04:44:08.203Z,13.79
2023-08-08T04:46:35.608Z,14.11
2023-08-08T04:49:02.905Z,14.09
2023-08-08T04:51:30.270Z,13.94
2023-08-08T04:53:57.615Z,13.76
2023-08-08T04:56:24.833Z,13.75
2023-08-08T04:58:52.100Z,13.88
2023-08-08T05:01:21.662Z,14.73
2023-08-08T05:03:49.682Z,15.53
2023-08-08T05:06:17.048Z,16.76
2023-08-08T05:08:44.396Z,17.51
2023-08-08T05:11:11.744Z,18.06
2023-08-08T05:13:39.045Z,18.55
2023-08-08T05:16:07.434Z,18.62
2023-08-08T05:18:34.820Z,18.64
2023-08-08T05:21:02.102Z,19.16
2023-08-08T05:23:29.525Z,19.74
2023-08-08T05:25:56.861Z,20.16
2023-08-08T05:28:24.150Z,20.56
2023-08-08T05:30:52.081Z,20.10
2023-08-08T05:33:19.503Z,20.33
2023-08-08T05:35:46.834Z,21.05
2023-08-08T05:38:14.197Z,21.80
2023-08-08T05:40:42.433Z,22.07
2023-08-08T05:43:10.156Z,22.25
2023-08-08T05:45:37.487Z,22.96
2023-08-08T05:48:05.215Z,22.52
2023-08-08T05:50:32.533Z,22.80
2023-08-08T05:52:59.860Z,23.35
2023-08-08T05:55:27.090Z,23.20
2023-08-08T05:57:55.501Z,23.66
2023-08-08T06:00:22.844Z,24.22
2023-08-08T06:02:50.485Z,24.53
2023-08-08T06:05:19.022Z,25.25
2023-08-08T06:07:46.389Z,24.66
2023-08-08T06:10:13.726Z,25.06
2023-08-08T06:12:41.180Z,25.47
2023-08-08T06:15:09.752Z,25.43
2023-08-08T06:17:37.140Z,25.93
2023-08-08T06:20:05.890Z,26.29
2023-08-08T06:22:33.428Z,26.23
2023-08-08T06:25:00.794Z,26.40
2023-08-08T06:27:28.285Z,26.40
2023-08-08T06:29:55.679Z,26.50
2023-08-08T06:32:23.262Z,26.49
2023-08-08T06:34:50.571Z,26.44
2023-08-08T06:37:17.866Z,27.32
2023-08-08T06:39:45.167Z,27.50
2023-08-08T06:42:12.434Z,27.71
2023-08-08T06:44:52.150Z,27.84
2023-08-08T06:47:19.580Z,28.54
2023-08-08T06:49:47.223Z,27.37
2023-08-08T06:52:14.550Z,28.31
2023-08-08T06:54:41.846Z,29.40
2023-08-08T06:57:09.307Z,29.63
2023-08-08T06:59:36.703Z,28.56
2023-08-08T07:02:04.668Z,26.70
2023-08-08T07:04:32.340Z,27.09
2023-08-08T07:06:59.653Z,27.34
2023-08-08T07:09:27.098Z,28.79
2023-08-08T07:11:54.368Z,28.49
2023-08-08T07:14:21.729Z,28.53
2023-08-08T07:16:49.769Z,27.14
2023-08-08T07:19:17.229Z,27.64
2023-08-08T07:21:44.604Z,27.69
2023-08-08T07:24:11.932Z,28.71
2023-08-08T07:26:39.491Z,28.85
2023-08-08T07:29:07.229Z,29.25
2023-08-08T07:31:35.063Z,30.01
2023-08-08T07:34:02.425Z,30.42
2023-08-08T07:36:29.830Z,30.66
2023-08-08T07:39:00.805Z,29.34
2023-08-08T07:41:31.993Z,26.17
2023-08-08T07:43:59.338Z,25.37
2023-08-08T07:46:26.664Z,24.03
2023-08-08T07:48:54.208Z,22.47
2023-08-08T07:51:21.701Z,21.32
2023-08-08T07:53:48.965Z,20.78
2023-08-08T07:56:16.331Z,20.48
2023-08-08T07:58:43.812Z,20.07
2023-08-08T08:01:11.209Z,20.14
2023-08-08T08:03:38.741Z,20.23
2023-08-08T08:06:06.351Z,19.89
2023-08-08T08:08:33.877Z,19.88
2023-08-08T08:11:04.943Z,19.46
2023-08-08T08:13:32.407Z,19.08
2023-08-08T08:15:59.889Z,18.88
2023-08-08T08:18:27.297Z,18.76
2023-08-08T08:20:54.616Z,18.49
2023-08-08T08:23:21.923Z,18.61
2023-08-08T08:25:49.920Z,18.86
2023-08-08T08:28:17.836Z,18.81
2023-08-08T08:30:45.313Z,19.42
2023-08-08T08:33:12.808Z,20.38
2023-08-08T08:35:40.326Z,21.55
2023-08-08T08:38:08.245Z,24.79
2023-08-08T08:40:40.784Z,26.87
2023-08-08T08:43:10.685Z,27.38
2023-08-08T08:45:44.338Z,26.15
2023-08-08T08:48:13.299Z,24.34
2023-08-08T08:50:41.169Z,22.98
2023-08-08T08:53:09.261Z,22.90
2023-08-08T08:55:36.648Z,23.80
2023-08-08T08:58:05.519Z,25.37
2023-08-08T09:00:34.112Z,25.59
2023-08-08T09:03:01.841Z,26.80
2023-08-08T09:05:29.618Z,29.16
2023-08-08T09:07:56.946Z,28.18
2023-08-08T09:10:26.212Z,29.48
2023-08-08T09:12:53.522Z,31.48
2023-08-08T09:15:20.832Z,32.25
2023-08-08T09:17:49.561Z,28.44
2023-08-08T09:20:19.184Z,24.50
2023-08-08T09:22:46.556Z,25.58
2023-08-08T09:25:13.931Z,24.61
2023-08-08T09:27:44.435Z,26.91
2023-08-08T09:30:13.018Z,28.85
2023-08-08T09:32:40.758Z,29.88
2023-08-08T09:35:11.961Z,26.85
2023-08-08T09:37:40.096Z,24.46
2023-08-08T09:40:09.343Z,22.05
2023-08-08T09:42:37.505Z,21.07
2023-08-08T09:45:05.907Z,20.04
2023-08-08T09:47:33.480Z,20.65
2023-08-08T09:50:03.059Z,20.59
2023-08-08T09:52:31.836Z,20.23
2023-08-08T09:54:59.869Z,20.53
2023-08-08T09:57:27.827Z,21.59
2023-08-08T09:59:56.436Z,22.25
2023-08-08T10:02:23.986Z,22.22
2023-08-08T10:04:52.127Z,21.54
2023-08-08T10:07:19.633Z,22.18
2023-08-08T10:09:47.394Z,21.54
2023-08-08T10:12:14.832Z,21.38
2023-08-08T10:14:44.389Z,21.68
2023-08-08T10:17:16.677Z,21.46
2023-08-08T10:19:56.293Z,24.13
2023-08-08T10:22:26.074Z,25.99
2023-08-08T10:24:57.460Z,23.87
2023-08-08T10:27:39.430Z,22.60
2023-08-08T10:30:11.993Z,21.80
2023-08-08T10:32:44.851Z,21.18
2023-08-08T10:35:13.834Z,20.15
2023-08-08T10:37:42.379Z,20.00
2023-08-08T10:40:12.618Z,20.44
2023-08-08T10:42:44.722Z,20.18
2023-08-08T10:45:15.580Z,19.88
2023-08-08T10:47:44.446Z,19.67
2023-08-08T10:50:13.820Z,19.64
2023-08-08T10:52:53.446Z,19.17
2023-08-08T10:55:28.865Z,19.26
2023-08-08T10:58:20.732Z,20.66
2023-08-08T11:00:49.383Z,22.97
2023-08-08T11:03:17.106Z,24.33
2023-08-08T11:05:48.465Z,23.18
2023-08-08T11:08:17.101Z,21.97
2023-08-08T11:10:44.415Z,20.75
2023-08-08T11:13:11.770Z,20.45
2023-08-08T11:15:40.086Z,20.16
2023-08-08T11:18:09.608Z,22.43
2023-08-08T11:20:38.349Z,22.80
2023-08-08T11:23:07.272Z,22.00
2023-08-08T11:25:34.828Z,22.52
2023-08-08T11:28:02.195Z,23.77
2023-08-08T11:30:33.689Z,24.42
2023-08-08T11:35:32.284Z,23.46
2023-08-08T11:38:01.341Z,22.82
2023-08-08T11:40:30.737Z,22.45
2023-08-08T11:43:00.171Z,21.42
2023-08-08T11:45:27.792Z,20.73
2023-08-08T11:47:57.570Z,20.65
2023-08-08T11:50:28.563Z,20.36
2023-08-08T11:52:56.937Z,20.34
2023-08-08T11:55:31.684Z,20.15
2023-08-08T11:58:01.075Z,19.75
2023-08-08T12:00:32.034Z,19.49
2023-08-08T12:03:02.353Z,18.77
2023-08-08T12:05:31.364Z,18.65
2023-08-08T12:08:00.387Z,18.48
2023-08-08T12:10:27.826Z,18.34
2023-08-08T12:13:01.377Z,18.47
2023-08-08T12:15:37.102Z,18.36
2023-08-08T12:18:05.773Z,18.18
2023-08-08T12:20:33.469Z,18.36
2023-08-08T12:23:01.394Z,18.64
2023-08-08T12:25:29.085Z,18.71
2023-08-08T12:27:56.594Z,19.03
2023-08-08T12:30:24.015Z,20.35
2023-08-08T12:32:51.397Z,21.52
2023-08-08T12:35:18.756Z,22.42
2023-08-08T12:37:46.056Z,22.57
2023-08-08T12:40:14.282Z,22.05
2023-08-08T12:42:41.761Z,21.62
2023-08-08T12:45:09.341Z,21.90
2023-08-08T12:47:38.824Z,22.01
2023-08-08T12:50:08.968Z,22.68
2023-08-08T12:52:36.996Z,22.78
2023-08-08T12:55:05.001Z,22.09
2023-08-08T12:57:33.046Z,22.10
2023-08-08T13:00:00.435Z,22.47
2023-08-08T13:02:27.936Z,21.95
2023-08-08T13:04:55.255Z,22.34
2023-08-08T13:07:22.472Z,23.12
2023-08-08T13:09:51.274Z,22.73
2023-08-08T13:12:18.681Z,22.78
2023-08-08T13:14:46.024Z,22.34
2023-08-08T13:17:13.457Z,21.65
2023-08-08T13:19:42.001Z,21.37
2023-08-08T13:22:09.374Z,21.47
2023-08-08T13:24:36.825Z,21.18
2023-08-08T13:27:04.227Z,20.82
2023-08-08T13:29:31.747Z,20.68
2023-08-08T13:31:59.546Z,20.34
2023-08-08T13:34:27.051Z,19.93
2023-08-08T13:36:54.359Z,19.24
2023-08-08T13:39:21.612Z,18.40
2023-08-08T13:41:49.339Z,17.93
2023-08-08T13:44:16.618Z,17.72
2023-08-08T13:46:44.138Z,17.80
2023-08-08T13:49:11.649Z,17.88
2023-08-08T13:51:39.010Z,18.45
2023-08-08T13:54:06.324Z,19.14
2023-08-08T13:56:33.664Z,19.85
2023-08-08T13:59:00.971Z,20.30
2023-08-08T14:01:28.314Z,20.25
2023-08-08T14:03:55.587Z,20.02
2023-08-08T14:06:22.918Z,20.26
2023-08-08T14:08:50.301Z,19.99
2023-08-08T14:11:17.780Z,19.96
2023-08-08T14:13:45.308Z,20.04
2023-08-08T14:16:12.781Z,19.66
2023-08-08T14:18:40.191Z,19.32
2023-08-08T14:21:07.664Z,19.55
2023-08-08T14:23:35.023Z,19.58
2023-08-08T14:26:02.261Z,19.58
2023-08-08T14:28:29.588Z,19.13
2023-08-08T14:30:56.912Z,19.12
2023-08-08T14:33:24.539Z,19.09
2023-08-08T14:35:51.839Z,19.19
2023-08-08T14:38:19.114Z,19.05
2023-08-08T14:40:46.630Z,19.12
2023-08-08T14:43:13.892Z,19.09
2023-08-08T14:45:41.499Z,18.96
2023-08-08T14:48:09.032Z,19.05
2023-08-08T14:50:36.622Z,19.12
2023-08-08T14:53:04.226Z,19.19
2023-08-08T14:55:31.744Z,19.30
2023-08-08T14:57:59.134Z,19.47
2023-08-08T15:00:26.364Z,19.65
2023-08-08T15:02:53.753Z,19.58
2023-08-08T15:05:21.261Z,19.50
2023-08-08T15:07:48.519Z,19.27
2023-08-08T15:10:16.315Z,19.05
2023-08-08T15:12:43.624Z,19.34
2023-08-08T15:15:11.554Z,19.61
2023-08-08T15:17:38.806Z,19.49
2023-08-08T15:20:07.393Z,19.23
2023-08-08T15:22:34.669Z,19.09
2023-08-08T15:25:02.460Z,18.94
2023-08-08T15:27:29.720Z,18.91
2023-08-08T15:29:57.286Z,18.68
2023-08-08T15:32:24.791Z,18.35
2023-08-08T15:34:52.172Z,18.27
2023-08-08T15:37:19.575Z,18.34
2023-08-08T15:39:46.784Z,18.41
2023-08-08T15:42:14.077Z,18.36
2023-08-08T15:44:41.323Z,18.44
2023-08-08T15:47:09.769Z,18.49
2023-08-08T15:49:37.106Z,18.48
2023-08-08T15:52:04.928Z,18.63
2023-08-08T15:54:32.130Z,18.69
2023-08-08T15:57:02.115Z,18.76
2023-08-08T15:59:31.501Z,18.68
2023-08-08T16:01:58.916Z,18.69
2023-08-08T16:04:26.248Z,18.65
2023-08-08T16:06:53.601Z,18.72
2023-08-08T16:09:20.885Z,18.55
2023-08-08T16:11:48.153Z,18.44
2023-08-08T16:14:16.151Z,18.48
2023-08-08T16:16:43.850Z,18.30
2023-08-08T16:19:12.658Z,18.26
2023-08-08T16:21:39.908Z,18.59
2023-08-08T16:24:07.682Z,18.53
2023-08-08T16:26:35.044Z,18.51
2023-08-08T16:29:02.640Z,18.27
2023-08-08T16:31:30.095Z,18.31
2023-08-08T16:33:57.452Z,18.26
2023-08-08T16:36:24.790Z,18.34
2023-08-08T16:38:55.215Z,18.36
2023-08-08T16:41:24.645Z,18.10
2023-08-08T16:44:10.006Z,18.13
2023-08-08T16:46:37.729Z,18.12
2023-08-08T16:49:05.127Z,18.04
2023-08-08T16:51:32.632Z,18.04
2023-08-08T16:54:00.647Z,17.93
2023-08-08T16:56:28.961Z,17.97
2023-08-08T16:58:56.358Z,17.92
2023-08-08T17:01:23.872Z,17.73
2023-08-08T17:03:51.232Z,17.66
2023-08-08T17:06:19.059Z,17.43
2023-08-08T17:08:46.656Z,17.20
2023-08-08T17:11:14.435Z,17.01
2023-08-08T17:13:41.800Z,17.13
2023-08-08T17:16:09.302Z,17.11
2023-08-08T17:18:37.952Z,17.11
2023-08-08T17:21:05.212Z,16.98
2023-08-08T17:23:32.649Z,17.09
2023-08-08T17:25:59.967Z,17.08
2023-08-08T17:28:27.337Z,17.04
2023-08-08T17:30:55.817Z,17.12
2023-08-08T17:33:23.175Z,17.12
2023-08-08T17:35:50.587Z,17.12
2023-08-08T17:38:17.955Z,17.03
2023-08-08T17:40:46.426Z,16.94
2023-08-08T17:43:13.815Z,16.93
2023-08-08T17:45:41.155Z,16.86
2023-08-08T17:48:08.589Z,16.80
2023-08-08T17:50:35.983Z,16.65
2023-08-08T17:53:03.452Z,16.59
2023-08-08T17:55:30.944Z,16.63
2023-08-08T17:57:58.187Z,16.59
2023-08-08T18:00:25.652Z,16.59
2023-08-08T18:02:52.974Z,16.56
2023-08-08T18:05:20.488Z,16.48
2023-08-08T18:07:47.838Z,16.45
2023-08-08T18:10:15.553Z,16.37
2023-08-08T18:12:44.159Z,16.26
2023-08-08T18:15:11.946Z,16.33
2023-08-08T18:17:39.369Z,16.21
2023-08-08T18:20:10.379Z,16.08
2023-08-08T18:22:37.812Z,15.95
2023-08-08T18:25:05.735Z,15.91
2023-08-08T18:27:33.451Z,15.75
2023-08-08T18:30:00.816Z,15.78
2023-08-08T18:32:28.280Z,15.88
2023-08-08T18:34:55.673Z,15.99
2023-08-08T18:37:23.117Z,15.91
2023-08-08T18:39:51.007Z,15.91
2023-08-08T18:42:18.397Z,15.82
2023-08-08T18:44:45.845Z,15.81
2023-08-08T18:47:13.062Z,15.73
2023-08-08T18:49:40.378Z,15.79
2023-08-08T18:52:07.878Z,15.81
2023-08-08T18:54:35.387Z,15.80
2023-08-08T18:57:02.692Z,15.76
2023-08-08T18:59:30.126Z,15.81
2023-08-08T19:01:57.614Z,15.87
2023-08-08T19:04:25.025Z,15.78
2023-08-08T19:06:52.623Z,15.80
2023-08-08T19:09:20.062Z,15.75
2023-08-08T19:11:47.594Z,15.90
2023-08-08T19:14:14.982Z,15.93
2023-08-08T19:16:42.693Z,15.96
2023-08-08T19:19:10.109Z,16.07
2023-08-08T19:21:37.811Z,16.13
2023-08-08T19:24:05.452Z,16.17
2023-08-08T19:26:34.638Z,16.28
2023-08-08T19:29:02.136Z,16.24
2023-08-08T19:31:29.526Z,16.27
2023-08-08T19:34:06.545Z,16.30
2023-08-08T19:36:36.693Z,16.14
2023-08-08T19:39:04.751Z,16.07
2023-08-08T19:41:32.125Z,16.01
2023-08-08T19:43:59.647Z,15.97
2023-08-08T19:46:27.107Z,16.00
2023-08-08T19:48:54.521Z,16.05
2023-08-08T19:51:21.796Z,16.14
2023-08-08T19:53:49.856Z,16.23
2023-08-08T19:56:17.226Z,16.31
2023-08-08T19:58:44.581Z,16.41
2023-08-08T20:01:12.195Z,16.41
2023-08-08T20:03:42.148Z,16.36
2023-08-08T20:06:09.940Z,16.39
2023-08-08T20:08:37.186Z,16.33
2023-08-08T20:11:06.881Z,16.30
2023-08-08T20:13:35.007Z,16.35
2023-08-08T20:16:02.834Z,16.30
2023-08-08T20:18:30.894Z,16.27
2023-08-08T20:20:58.722Z,16.20
2023-08-08T20:23:26.314Z,16.24
2023-08-08T20:25:53.848Z,16.15
2023-08-08T20:28:21.431Z,16.14
2023-08-08T20:30:48.756Z,16.14
2023-08-08T20:33:16.149Z,16.11
2023-08-08T20:35:43.605Z,16.09
2023-08-08T20:38:11.493Z,16.00
2023-08-08T20:40:38.870Z,16.00
2023-08-08T20:43:06.306Z,15.95
2023-08-08T20:45:33.899Z,15.88
2023-08-08T20:48:02.323Z,15.99
2023-08-08T20:50:29.731Z,16.09
2023-08-08T20:52:57.224Z,16.08
2023-08-08T20:55:24.586Z,15.99
2023-08-08T20:57:51.963Z,15.98
2023-08-08T21:00:20.359Z,15.99
2023-08-08T21:04:02.645Z,16.05
2023-08-08T21:06:44.874Z,16.10
2023-08-08T21:09:12.454Z,16.07
2023-08-08T21:11:39.798Z,16.11
2023-08-08T21:14:07.269Z,16.13
2023-08-08T21:16:34.778Z,16.03
2023-08-08T21:19:02.334Z,16.02
2023-08-08T21:21:29.851Z,15.96
2023-08-08T21:23:57.516Z,15.85
2023-08-08T21:26:34.089Z,15.76
2023-08-08T21:29:06.500Z,15.84
2023-08-08T21:31:34.166Z,15.83
2023-08-08T21:34:01.787Z,15.85
2023-08-08T21:36:29.182Z,15.81
2023-08-08T21:38:58.503Z,15.89
2023-08-08T21:41:27.749Z,15.99
2023-08-08T21:43:55.945Z,16.07
2023-08-08T21:46:23.434Z,16.04
2023-08-08T21:48:51.008Z,15.99
2023-08-08T21:51:18.379Z,16.04
2023-08-08T21:53:45.784Z,15.91
2023-08-08T21:56:13.156Z,15.91
2023-08-08T21:58:40.680Z,15.81
2023-08-08T22:01:08.204Z,15.73
2023-08-08T22:03:35.706Z,15.83
2023-08-08T22:06:03.141Z,15.67
2023-08-08T22:08:30.708Z,15.65
2023-08-08T22:10:57.993Z,15.76
2023-08-08T22:13:25.545Z,15.68
2023-08-08T22:15:53.972Z,15.59
2023-08-08T22:18:22.008Z,15.39
2023-08-08T22:20:49.458Z,15.29
2023-08-08T22:23:21.032Z,15.37
2023-08-08T22:25:50.990Z,15.30
2023-08-08T22:28:19.741Z,15.35
2023-08-08T22:30:52.513Z,15.56
2023-08-08T22:33:20.856Z,15.85
2023-08-08T22:35:48.210Z,15.95
2023-08-08T22:38:15.681Z,16.07
2023-08-08T22:40:44.499Z,16.09
2023-08-08T22:43:13.008Z,16.11
2023-08-08T22:45:40.371Z,16.03
2023-08-08T22:48:07.959Z,15.93
2023-08-08T22:50:35.340Z,15.78
2023-08-08T22:53:04.288Z,15.59
2023-08-08T22:55:31.655Z,15.54
2023-08-08T22:57:59.048Z,15.54
2023-08-08T23:00:27.074Z,15.67
2023-08-08T23:02:54.409Z,15.62
2023-08-08T23:05:25.053Z,15.62
2023-08-08T23:07:52.387Z,15.68
2023-08-08T23:10:19.896Z,15.72
2023-08-08T23:12:47.396Z,15.68
2023-08-08T23:15:14.819Z,15.61
2023-08-08T23:17:42.124Z,15.47
2023-08-08T23:20:10.028Z,15.42
2023-08-08T23:22:38.546Z,15.47
2023-08-08T23:25:10.608Z,15.43
2023-08-08T23:27:38.046Z,15.38
2023-08-08T23:30:10.258Z,15.34
2023-08-08T23:32:40.562Z,15.22
2023-08-08T23:35:09.789Z,15.14
2023-08-08T23:37:37.564Z,15.07
2023-08-08T23:40:09.389Z,15.06
2023-08-08T23:42:37.473Z,15.02
2023-08-08T23:45:08.386Z,14.93
2023-08-08T23:47:35.679Z,14.92
2023-08-08T23:50:05.058Z,14.93
2023-08-08T23:52:32.293Z,14.97
2023-08-08T23:54:59.564Z,14.96
2023-08-08T23:57:26.788Z,14.95
2023-08-08T23:59:54.102Z,14.94
